createdAt,value
2023-04-05T00:02:19.816Z,2.74
2023-04-05T00:05:10.078Z,2.82
2023-04-05T00:08:04.172Z,2.75
2023-04-05T00:10:54.752Z,2.72
2023-04-05T00:13:44.762Z,2.71
2023-04-05T00:16:43.912Z,2.62
2023-04-05T00:19:39.677Z,2.64
2023-04-05T00:22:33.722Z,2.65
2023-04-05T00:25:25.542Z,2.48
2023-04-05T00:28:23.990Z,2.65
2023-04-05T00:31:12.884Z,2.62
2023-04-05T00:34:04.407Z,2.44
2023-04-05T00:36:53.473Z,2.52
2023-04-05T00:39:42.710Z,2.64
2023-04-05T00:42:32.228Z,2.64
2023-04-05T00:45:25.086Z,2.58
2023-04-05T00:48:14.456Z,2.60
2023-04-05T00:51:05.026Z,2.62
2023-04-05T00:53:55.072Z,2.52
2023-04-05T00:56:46.085Z,2.63
2023-04-05T00:59:34.969Z,2.62
2023-04-05T01:02:34.368Z,2.64
2023-04-05T01:05:34.804Z,2.52
2023-04-05T01:08:35.641Z,2.51
2023-04-05T01:11:30.330Z,2.61
2023-04-05T01:14:19.869Z,2.62
2023-04-05T01:17:11.220Z,2.63
2023-04-05T01:20:11.153Z,2.62
2023-04-05T01:23:19.247Z,2.62
2023-04-05T01:26:40.668Z,2.58
2023-04-05T01:29:51.314Z,2.54
2023-04-05T01:32:50.482Z,2.46
2023-04-05T01:35:45.289Z,2.52
2023-04-05T01:38:59.820Z,2.49
2023-04-05T01:41:52.119Z,2.47
2023-04-05T01:45:10.534Z,2.51
2023-04-05T01:48:13.939Z,2.49
2023-04-05T01:51:18.662Z,2.45
2023-04-05T01:54:12.518Z,2.48
2023-04-05T01:57:17.733Z,2.44
2023-04-05T02:00:19.343Z,2.28
2023-04-05T02:04:14.129Z,2.43
2023-04-05T02:07:44.425Z,2.40
2023-04-05T02:10:39.232Z,2.35
2023-04-05T02:13:48.543Z,2.28
2023-04-05T02:16:52.603Z,2.24
2023-04-05T02:20:04.971Z,2.23
2023-04-05T02:26:13.463Z,2.05
2023-04-05T02:29:02.095Z,2.14
2023-04-05T02:31:52.567Z,2.14
2023-04-05T02:34:42.958Z,2.12
2023-04-05T02:37:32.410Z,2.08
2023-04-05T02:40:21.923Z,2.10
2023-04-05T02:43:11.090Z,2.09
2023-04-05T02:46:00.726Z,2.11
2023-04-05T02:48:51.157Z,2.10
2023-04-05T02:51:41.356Z,2.07
2023-04-05T02:54:31.707Z,2.02
2023-04-05T02:57:24.371Z,2.00
2023-04-05T03:00:23.945Z,2.00
2023-04-05T03:03:14.784Z,1.93
2023-04-05T03:06:10.737Z,1.87
2023-04-05T03:09:09.157Z,1.83
2023-04-05T03:11:58.832Z,1.85
2023-04-05T03:14:48.636Z,1.87
2023-04-05T03:17:44.681Z,1.92
2023-04-05T03:20:40.166Z,1.90
2023-04-05T03:23:35.281Z,1.89
2023-04-05T03:26:25.127Z,1.87
2023-04-05T03:29:16.107Z,1.82
2023-04-05T03:32:05.336Z,1.82
2023-04-05T03:34:54.734Z,1.80
2023-04-05T03:37:44.626Z,1.76
2023-04-05T03:40:36.070Z,1.77
2023-04-05T03:43:24.692Z,1.78
2023-04-05T03:46:14.322Z,1.74
2023-04-05T03:49:03.855Z,1.74
2023-04-05T03:51:53.269Z,1.77
2023-04-05T03:54:41.862Z,1.74
2023-04-05T03:57:33.200Z,1.66
2023-04-05T04:00:29.719Z,1.66
2023-04-05T04:03:45.100Z,1.61
2023-04-05T04:06:34.445Z,1.57
2023-04-05T04:09:24.047Z,1.61
2023-04-05T04:12:13.396Z,1.61
2023-04-05T04:15:13.204Z,1.59
2023-04-05T04:18:31.765Z,1.53
2023-04-05T04:21:39.977Z,1.47
2023-04-05T04:24:50.150Z,1.38
2023-04-05T04:28:06.680Z,1.32
2023-04-05T04:31:13.592Z,1.31
2023-04-05T04:34:26.328Z,1.32
2023-04-05T04:37:38.061Z,1.27
2023-04-05T04:40:47.736Z,1.25
2023-04-05T04:43:45.855Z,1.21
2023-04-05T04:46:57.466Z,1.18
2023-04-05T04:50:00.751Z,1.14
2023-04-05T04:52:51.025Z,1.19
2023-04-05T04:55:42.515Z,1.19
2023-04-05T04:58:31.220Z,1.17
2023-04-05T05:01:26.644Z,1.08
2023-04-05T05:04:17.230Z,1.01
2023-04-05T05:07:06.924Z,1.04
2023-04-05T05:09:57.751Z,1.04
2023-04-05T05:12:46.771Z,1.05
2023-04-05T05:15:38.058Z,1.04
2023-04-05T05:18:27.172Z,1.05
2023-04-05T05:21:17.596Z,0.99
2023-04-05T05:24:14.768Z,1.10
2023-04-05T05:27:03.452Z,1.14
2023-04-05T05:29:52.083Z,1.18
2023-04-05T05:32:42.592Z,1.18
2023-04-05T05:35:31.294Z,1.24
2023-04-05T05:38:24.082Z,1.26
2023-04-05T05:41:13.120Z,1.32
2023-04-05T05:44:02.916Z,1.24
2023-04-05T05:46:51.557Z,1.26
2023-04-05T05:49:40.808Z,1.29
2023-04-05T05:52:29.465Z,1.26
2023-04-05T05:55:21.099Z,1.27
2023-04-05T05:58:09.761Z,1.35
2023-04-05T06:01:00.158Z,1.33
2023-04-05T06:03:48.891Z,1.51
2023-04-05T06:06:39.843Z,1.46
2023-04-05T06:09:28.909Z,1.38
2023-04-05T06:12:19.308Z,1.37
2023-04-05T06:15:09.511Z,1.42
2023-04-05T06:17:58.205Z,1.33
2023-04-05T06:20:47.553Z,1.57
2023-04-05T06:23:36.679Z,1.49
2023-04-05T06:26:27.743Z,1.59
2023-04-05T06:29:18.084Z,1.66
2023-04-05T06:32:07.319Z,1.70
2023-04-05T06:34:56.562Z,1.71
2023-04-05T06:37:45.128Z,1.69
2023-04-05T06:40:34.293Z,1.72
2023-04-05T06:43:22.888Z,1.76
2023-04-05T06:46:14.543Z,1.89
2023-04-05T06:49:04.098Z,1.90
2023-04-05T06:51:53.354Z,1.93
2023-04-05T06:54:42.017Z,1.93
2023-04-05T06:57:31.080Z,1.96
2023-04-05T07:00:21.084Z,2.09
2023-04-05T07:03:11.573Z,2.16
2023-04-05T07:06:01.379Z,2.22
2023-04-05T07:08:51.377Z,2.25
2023-04-05T07:11:40.090Z,2.33
2023-04-05T07:14:30.753Z,2.44
2023-04-05T07:17:19.776Z,2.51
2023-04-05T07:20:10.863Z,2.44
2023-04-05T07:23:00.162Z,2.80
2023-04-05T07:25:48.846Z,2.91
2023-04-05T07:28:38.952Z,2.98
2023-04-05T07:31:27.601Z,3.10
2023-04-05T07:34:17.054Z,3.21
2023-04-05T07:37:07.753Z,3.26
2023-04-05T07:39:56.392Z,3.19
2023-04-05T07:42:45.049Z,3.30
2023-04-05T07:45:34.541Z,3.40
2023-04-05T07:48:23.185Z,3.62
2023-04-05T07:51:13.173Z,3.68
2023-04-05T07:54:04.074Z,3.76
2023-04-05T07:56:55.340Z,3.85
2023-04-05T07:59:44.011Z,3.99
2023-04-05T08:02:33.502Z,4.06
2023-04-05T08:05:22.441Z,4.12
2023-04-05T08:08:11.899Z,4.23
2023-04-05T08:11:03.978Z,4.36
2023-04-05T08:13:54.056Z,4.40
2023-04-05T08:16:44.421Z,4.47
2023-04-05T08:19:33.118Z,4.49
2023-04-05T08:22:22.991Z,4.62
2023-04-05T08:25:11.710Z,4.72
2023-04-05T08:28:01.800Z,4.67
2023-04-05T08:30:55.460Z,4.88
2023-04-05T08:33:44.105Z,5.02
2023-04-05T08:36:33.529Z,5.31
2023-04-05T08:39:22.233Z,5.45
2023-04-05T08:42:18.222Z,5.75
2023-04-05T08:45:11.158Z,5.97
2023-04-05T08:48:00.463Z,6.12
2023-04-05T08:50:52.743Z,6.26
2023-04-05T08:53:42.271Z,6.47
2023-04-05T08:56:33.540Z,6.67
2023-04-05T08:59:23.852Z,6.87
2023-04-05T09:02:18.956Z,7.02
2023-04-05T09:05:11.748Z,7.31
2023-04-05T09:08:01.754Z,7.50
2023-04-05T09:10:52.388Z,7.77
2023-04-05T09:13:43.429Z,7.76
2023-04-05T09:16:33.817Z,8.07
2023-04-05T09:19:24.072Z,8.15
2023-04-05T09:22:14.614Z,8.37
2023-04-05T09:25:03.543Z,8.55
2023-04-05T09:27:57.737Z,8.63
2023-04-05T09:30:47.761Z,8.79
2023-04-05T09:33:37.708Z,9.13
2023-04-05T09:36:28.411Z,9.45
2023-04-05T09:39:21.925Z,9.60
2023-04-05T09:42:13.152Z,9.94
2023-04-05T09:45:06.053Z,10.31
2023-04-05T09:48:15.104Z,10.62
2023-04-05T09:51:12.826Z,10.96
2023-04-05T09:54:05.556Z,10.54
2023-04-05T09:56:56.897Z,9.90
2023-04-05T09:59:46.428Z,9.60
2023-04-05T10:02:39.893Z,10.00
2023-04-05T10:05:30.688Z,9.81
2023-04-05T10:08:20.107Z,10.46
2023-04-05T10:11:13.513Z,10.28
2023-04-05T10:14:04.604Z,9.91
2023-04-05T10:17:05.651Z,9.82
2023-04-05T10:20:05.256Z,10.06
2023-04-05T10:23:10.879Z,10.92
2023-04-05T10:26:05.973Z,11.00
2023-04-05T10:29:10.168Z,10.55
2023-04-05T10:32:07.005Z,10.11
2023-04-05T10:35:01.648Z,9.80
2023-04-05T10:37:59.989Z,9.62
2023-04-05T10:40:50.681Z,9.52
2023-04-05T10:43:41.052Z,9.43
2023-04-05T10:46:32.594Z,9.54
2023-04-05T10:49:24.616Z,9.65
2023-04-05T10:52:13.937Z,9.82
2023-04-05T10:55:05.008Z,9.65
2023-04-05T10:57:56.079Z,9.58
2023-04-05T11:00:46.550Z,9.56
2023-04-05T11:03:54.412Z,9.38
2023-04-05T11:06:48.934Z,9.27
2023-04-05T11:09:39.923Z,9.23
2023-04-05T11:13:02.969Z,9.18
2023-04-05T11:16:09.518Z,9.25
2023-04-05T11:18:59.948Z,9.42
2023-04-05T11:21:48.699Z,9.70
2023-04-05T11:24:53.021Z,9.63
2023-04-05T11:28:02.028Z,9.26
2023-04-05T11:30:53.089Z,9.29
2023-04-05T11:34:01.051Z,9.38
2023-04-05T11:36:50.592Z,9.44
2023-04-05T11:39:40.298Z,9.45
2023-04-05T11:42:28.987Z,9.37
2023-04-05T11:45:21.056Z,9.32
2023-04-05T11:48:11.070Z,9.27
2023-04-05T11:51:02.097Z,9.44
2023-04-05T11:53:50.800Z,9.71
2023-04-05T11:56:39.888Z,10.88
2023-04-05T11:59:37.309Z,12.07
2023-04-05T12:02:26.578Z,12.60
2023-04-05T12:05:15.973Z,12.91
2023-04-05T12:08:06.666Z,13.04
2023-04-05T12:10:56.843Z,13.21
2023-04-05T12:13:47.586Z,13.79
2023-04-05T12:16:36.243Z,14.69
2023-04-05T12:19:31.455Z,15.22
2023-04-05T12:22:20.164Z,15.15
2023-04-05T12:25:11.643Z,14.60
2023-04-05T12:28:05.857Z,13.86
2023-04-05T12:30:57.630Z,13.04
2023-04-05T12:33:47.043Z,12.61
2023-04-05T12:36:36.346Z,12.46
2023-04-05T12:39:30.061Z,13.56
2023-04-05T12:42:20.539Z,14.54
2023-04-05T12:45:12.972Z,15.28
2023-04-05T12:48:01.808Z,15.88
2023-04-05T12:50:54.016Z,16.37
2023-04-05T12:53:46.948Z,16.42
2023-04-05T12:56:35.737Z,16.81
2023-04-05T12:59:25.857Z,17.28
2023-04-05T13:02:15.687Z,17.59
2023-04-05T13:05:04.882Z,17.21
2023-04-05T13:07:55.325Z,16.44
2023-04-05T13:10:43.948Z,15.74
2023-04-05T13:13:35.420Z,15.23
2023-04-05T13:16:25.425Z,15.22
2023-04-05T13:19:15.241Z,14.85
2023-04-05T13:22:03.899Z,14.46
2023-04-05T13:24:53.963Z,14.84
2023-04-05T13:27:43.286Z,15.80
2023-04-05T13:30:31.942Z,16.67
2023-04-05T13:33:22.564Z,17.16
2023-04-05T13:36:12.482Z,17.56
2023-04-05T13:39:01.912Z,17.98
2023-04-05T13:41:50.898Z,18.06
2023-04-05T13:44:39.865Z,17.90
2023-04-05T13:47:28.569Z,17.93
2023-04-05T13:50:20.484Z,18.21
2023-04-05T13:53:09.630Z,17.51
2023-04-05T13:55:58.885Z,16.47
2023-04-05T13:58:47.576Z,15.85
2023-04-05T14:01:36.902Z,15.33
2023-04-05T14:04:25.723Z,16.38
2023-04-05T14:07:16.434Z,17.11
2023-04-05T14:10:06.163Z,17.40
2023-04-05T14:12:55.989Z,17.79
2023-04-05T14:15:44.689Z,18.05
2023-04-05T14:18:33.300Z,18.01
2023-04-05T14:21:22.882Z,18.07
2023-04-05T14:24:12.842Z,18.46
2023-04-05T14:27:02.440Z,18.49
2023-04-05T14:29:52.513Z,18.50
2023-04-05T14:32:42.506Z,18.89
2023-04-05T14:35:31.741Z,18.72
2023-04-05T14:38:20.639Z,18.48
2023-04-05T14:41:11.522Z,17.84
2023-04-05T14:44:01.607Z,18.03
2023-04-05T14:46:52.030Z,18.32
2023-04-05T14:49:40.717Z,18.82
2023-04-05T14:52:29.691Z,18.69
2023-04-05T14:55:18.389Z,18.13
2023-04-05T14:57:49.436Z,18.09
2023-04-05T15:00:18.786Z,18.46
2023-04-05T15:03:07.815Z,18.60
2023-04-05T15:05:56.609Z,18.84
2023-04-05T15:08:45.240Z,18.90
2023-04-05T15:11:35.739Z,18.71
2023-04-05T15:14:32.148Z,18.57
2023-04-05T15:17:21.870Z,18.65
2023-04-05T15:20:11.869Z,18.49
2023-04-05T15:23:01.040Z,18.57
2023-04-05T15:25:49.619Z,18.78
2023-04-05T15:28:39.367Z,18.91
2023-04-05T15:31:29.863Z,18.81
2023-04-05T15:34:18.980Z,18.70
2023-04-05T15:37:07.596Z,18.78
2023-04-05T15:40:03.704Z,18.74
2023-04-05T15:42:55.906Z,18.58
2023-04-05T15:45:44.946Z,18.58
2023-04-05T15:48:34.928Z,18.49
2023-04-05T15:51:23.719Z,18.47
2023-04-05T15:54:18.574Z,18.29
2023-04-05T15:57:07.330Z,17.75
2023-04-05T15:59:56.851Z,17.71
2023-04-05T16:02:46.466Z,17.70
2023-04-05T16:05:37.507Z,17.64
2023-04-05T16:08:26.199Z,17.61
2023-04-05T16:11:15.810Z,17.49
2023-04-05T16:14:05.299Z,17.36
2023-04-05T16:16:54.624Z,17.39
2023-04-05T16:19:43.801Z,17.31
2023-04-05T16:22:34.257Z,17.16
2023-04-05T16:25:23.718Z,16.92
2023-04-05T16:28:14.170Z,16.66
2023-04-05T16:31:03.065Z,16.52
2023-04-05T16:33:52.682Z,16.32
2023-04-05T16:36:41.811Z,15.41
2023-04-05T16:39:31.776Z,14.64
2023-04-05T16:42:20.420Z,14.41
2023-04-05T16:45:11.196Z,14.22
2023-04-05T16:47:59.863Z,14.02
2023-04-05T16:50:49.203Z,13.70
2023-04-05T16:53:37.796Z,13.16
2023-04-05T16:56:28.419Z,12.58
2023-04-05T16:59:17.296Z,12.52
2023-04-05T17:02:06.556Z,12.64
2023-04-05T17:04:55.327Z,12.74
2023-04-05T17:07:43.980Z,12.93
2023-04-05T17:10:33.116Z,13.08
2023-04-05T17:13:23.712Z,12.85
2023-04-05T17:16:12.823Z,12.76
2023-04-05T17:19:02.482Z,12.66
2023-04-05T17:21:51.485Z,12.40
2023-04-05T17:24:41.767Z,12.14
2023-04-05T17:27:30.422Z,11.88
2023-04-05T17:30:21.137Z,11.77
2023-04-05T17:33:09.893Z,11.75
2023-04-05T17:36:00.722Z,11.74
2023-04-05T17:38:49.398Z,11.67
2023-04-05T17:41:38.451Z,11.53
2023-04-05T17:44:27.267Z,11.31
2023-04-05T17:47:17.715Z,11.28
2023-04-05T17:50:07.299Z,11.18
2023-04-05T17:52:56.914Z,10.98
2023-04-05T17:55:45.692Z,10.83
2023-04-05T17:58:35.959Z,10.69
2023-04-05T18:01:24.597Z,10.55
2023-04-05T18:04:15.466Z,10.34
2023-04-05T18:07:04.219Z,10.20
2023-04-05T18:09:53.246Z,10.16
2023-04-05T18:12:41.880Z,10.07
2023-04-05T18:15:31.675Z,9.98
2023-04-05T18:18:20.342Z,10.02
2023-04-05T18:21:11.004Z,9.95
2023-04-05T18:23:59.881Z,9.88
2023-04-05T18:26:48.488Z,9.65
2023-04-05T18:29:38.898Z,9.48
2023-04-05T18:32:27.726Z,9.37
2023-04-05T18:35:16.498Z,9.27
2023-04-05T18:38:11.431Z,8.95
2023-04-05T18:41:02.008Z,9.07
2023-04-05T18:43:53.963Z,9.03
2023-04-05T18:46:44.161Z,8.99
2023-04-05T18:49:34.052Z,8.80
2023-04-05T18:52:25.889Z,8.66
2023-04-05T18:55:16.396Z,8.56
2023-04-05T18:58:05.109Z,8.54
2023-04-05T19:00:53.838Z,8.30
2023-04-05T19:03:43.369Z,8.35
2023-04-05T19:06:32.984Z,8.28
2023-04-05T19:09:22.124Z,8.26
2023-04-05T19:12:12.937Z,8.24
2023-04-05T19:15:01.635Z,8.06
2023-04-05T19:17:51.875Z,7.97
2023-04-05T19:20:40.729Z,7.98
2023-04-05T19:23:30.427Z,7.97
2023-04-05T19:26:22.260Z,7.79
2023-04-05T19:29:12.589Z,7.68
2023-04-05T19:32:02.069Z,7.60
2023-04-05T19:34:50.964Z,7.56
2023-04-05T19:37:41.715Z,7.47
2023-04-05T19:40:30.783Z,7.53
2023-04-05T19:43:20.354Z,7.65
2023-04-05T19:46:10.815Z,7.59
2023-04-05T19:49:07.583Z,7.48
2023-04-05T19:51:56.362Z,7.36
2023-04-05T19:54:45.358Z,7.33
2023-04-05T19:57:41.451Z,7.24
2023-04-05T20:00:32.527Z,7.07
2023-04-05T20:03:33.098Z,7.04
2023-04-05T20:06:21.779Z,7.05
2023-04-05T20:09:18.474Z,6.96
2023-04-05T20:12:08.195Z,6.80
2023-04-05T20:14:56.830Z,6.71
2023-04-05T20:17:48.928Z,6.66
2023-04-05T20:20:39.246Z,6.66
2023-04-05T20:23:31.504Z,6.52
2023-04-05T20:26:23.292Z,6.49
2023-04-05T20:29:16.632Z,6.49
2023-04-05T20:32:07.677Z,6.48
2023-04-05T20:34:56.511Z,6.42
2023-04-05T20:37:49.738Z,6.33
2023-04-05T20:40:38.457Z,6.32
2023-04-05T20:43:28.545Z,6.21
2023-04-05T20:46:18.702Z,6.08
2023-04-05T20:49:08.594Z,5.99
2023-04-05T20:51:58.368Z,5.95
2023-04-05T20:54:50.290Z,5.97
2023-04-05T20:57:38.989Z,5.82
2023-04-05T21:00:27.912Z,5.88
2023-04-05T21:03:16.920Z,5.77
2023-04-05T21:06:08.357Z,5.68
2023-04-05T21:08:57.601Z,5.67
2023-04-05T21:11:47.647Z,5.63
2023-04-05T21:14:38.214Z,5.59
2023-04-05T21:17:28.052Z,5.57
2023-04-05T21:20:16.947Z,5.51
2023-04-05T21:23:08.463Z,5.39
2023-04-05T21:25:58.627Z,5.39
2023-04-05T21:28:48.704Z,5.46
2023-04-05T21:31:41.121Z,5.44
2023-04-05T21:34:29.866Z,5.38
2023-04-05T21:37:19.096Z,5.31
2023-04-05T21:40:12.734Z,5.27
2023-04-05T21:43:05.191Z,5.21
2023-04-05T21:46:00.356Z,5.17
2023-04-05T21:48:51.461Z,5.19
2023-04-05T21:51:41.201Z,5.16
2023-04-05T21:54:31.200Z,5.08
2023-04-05T21:57:22.619Z,5.10
2023-04-05T22:00:15.858Z,4.85
2023-04-05T22:03:11.472Z,4.89
2023-04-05T22:06:02.190Z,4.93
2023-04-05T22:08:57.915Z,4.83
2023-04-05T22:11:46.678Z,4.80
2023-04-05T22:14:38.032Z,4.81
2023-04-05T22:17:28.744Z,4.82
2023-04-05T22:20:21.532Z,4.82
2023-04-05T22:23:14.216Z,4.83
2023-04-05T22:26:08.520Z,4.74
2023-04-05T22:28:58.213Z,4.68
2023-04-05T22:31:46.983Z,4.60
2023-04-05T22:34:39.511Z,4.61
2023-04-05T22:37:38.311Z,4.55
2023-04-05T22:40:28.664Z,4.47
2023-04-05T22:43:26.979Z,4.35
2023-04-05T22:46:15.952Z,4.38
2023-04-05T22:49:05.143Z,4.31
2023-04-05T22:52:00.435Z,4.21
2023-04-05T22:54:54.088Z,4.02
2023-04-05T22:57:44.885Z,4.07
2023-04-05T23:00:34.134Z,4.07
2023-04-05T23:03:22.780Z,4.03
2023-04-05T23:06:12.261Z,4.05
2023-04-05T23:09:03.112Z,4.01
2023-04-05T23:11:54.629Z,3.71
2023-04-05T23:14:46.374Z,3.98
2023-04-05T23:17:36.519Z,4.01
2023-04-05T23:20:26.764Z,3.95
2023-04-05T23:23:16.235Z,3.94
2023-04-05T23:26:05.374Z,3.92
2023-04-05T23:28:57.882Z,3.98
2023-04-05T23:31:49.279Z,3.84
2023-04-05T23:37:48.713Z,3.85
2023-04-05T23:40:38.638Z,3.67
2023-04-05T23:43:27.289Z,3.86
2023-04-05T23:46:17.785Z,3.81
2023-04-05T23:49:07.922Z,3.71
2023-04-05T23:51:57.814Z,3.67
2023-04-05T23:54:47.435Z,3.69
2023-04-05T23:57:39.254Z,3.65
